PWSweather.com
Personal Weather Stations
Station Observations
KCTHAMDEN
Dunbar Hill, Hamden, CT 06514

Dunbar HillHamden, CT 06514

Lat: 41.365437, Lon: -72.956532

Elevation: 200

Station Type: Davis Vantage Pro2+

Latest ConditionsUpdated 4:45:01 PM EDT Monday, Sep 23, 2019
Currently Today's Max Today's Min Today's Average
Temperature 81.7°F27.6°C 86.1°F30.1°C 62.1°F16.7°C 71.9°F22.2°C
Dew Point 70.5°F21.4°C 72.8°F22.7°C 60.9°F16.1°C 66.5°F19.2°C
Winds 0.8 mph SE1.3 kmh SE 3.7 mph -6.0 kmh - - 0.9 mph 1.4 kmh
Wind Gusts 3.0 mph4.8 kmh 9.0 mph14.5 kmh - -
Humidity 69% 98% 61% 85%
Pressure 29.75 in1007.5 mb 29.99 in1015.6 mb 29.75 in1007.5 mb -
Hour Temp Dew Point Humidity Winds Wind Gusts Pressure Precip Precip Rate Daily Precip Total
04:45 PM 81.7°F27.6°C 70.5°F21.4°C 69% 0.8 mph SE1.3 kmh SE 3.0 mph4.8 kmh 29.75 in1007.5 mb - 0.00 in0.0 mm 0.00 in0.0 mm
04:30 PM 82.3°F27.9°C 70.7°F21.5°C 68% 1.3 mph SE2.1 kmh SE 2.0 mph3.2 kmh 29.76 in1007.8 mb - 0.00 in0.0 mm 0.00 in0.0 mm
04:15 PM 83.3°F28.5°C 70.7°F21.5°C 66% 2.8 mph S4.5 kmh S 7.0 mph11.3 kmh 29.76 in1007.8 mb - 0.00 in0.0 mm 0.00 in0.0 mm
04:00 PM 84.2°F29.0°C 72.0°F22.2°C 67% 1.8 mph SSE2.9 kmh SSE 4.0 mph6.4 kmh 29.77 in1008.1 mb - 0.00 in0.0 mm 0.00 in0.0 mm
03:45 PM 84.3°F29.1°C 71.2°F21.8°C 65% 1.9 mph S3.1 kmh S 2.0 mph3.2 kmh 29.77 in1008.1 mb - 0.00 in0.0 mm 0.00 in0.0 mm
03:30 PM 85.6°F29.8°C 72.0°F22.2°C 64% 3.0 mph S4.8 kmh S 9.0 mph14.5 kmh 29.77 in1008.1 mb - 0.00 in0.0 mm 0.00 in0.0 mm
03:15 PM 86.0°F30.0°C 70.9°F21.6°C 61% 2.2 mph SSE3.5 kmh SSE 4.0 mph6.4 kmh 29.78 in1008.5 mb - 0.00 in0.0 mm 0.00 in0.0 mm
03:00 PM 86.1°F30.1°C 72.5°F22.5°C 64% 1.5 mph SSE2.4 kmh SSE 3.0 mph4.8 kmh 29.79 in1008.8 mb - 0.00 in0.0 mm 0.00 in0.0 mm
02:45 PM 86.1°F30.1°C 72.0°F22.2°C 63% 1.6 mph SE2.6 kmh SE 5.0 mph8.0 kmh 29.79 in1008.8 mb - 0.00 in0.0 mm 0.00 in0.0 mm
02:30 PM 85.8°F29.9°C 71.3°F21.8°C 62% 1.3 mph SE2.1 kmh SE 3.0 mph4.8 kmh 29.80 in1009.1 mb - 0.00 in0.0 mm 0.00 in0.0 mm
02:15 PM 85.6°F29.8°C 71.6°F22.0°C 63% 1.8 mph S2.9 kmh S 3.0 mph4.8 kmh 29.80 in1009.1 mb - 0.00 in0.0 mm 0.00 in0.0 mm
02:00 PM 85.6°F29.8°C 71.6°F22.0°C 63% 2.8 mph S4.5 kmh S 5.0 mph8.0 kmh 29.80 in1009.1 mb - 0.00 in0.0 mm 0.00 in0.0 mm
01:45 PM 85.3°F29.6°C 72.2°F22.3°C 65% 2.3 mph SE3.7 kmh SE 8.0 mph12.9 kmh 29.81 in1009.5 mb - 0.00 in0.0 mm 0.00 in0.0 mm
01:30 PM 85.0°F29.4°C 71.5°F21.9°C 64% 2.3 mph SSW3.7 kmh SSW 6.0 mph9.7 kmh 29.81 in1009.5 mb - 0.00 in0.0 mm 0.00 in0.0 mm
01:15 PM 84.6°F29.2°C 72.8°F22.7°C 68% 2.9 mph SE4.7 kmh SE 6.0 mph9.7 kmh 29.82 in1009.8 mb - 0.00 in0.0 mm 0.00 in0.0 mm
01:00 PM 83.9°F28.8°C 72.2°F22.3°C 68% 1.7 mph S2.7 kmh S 4.0 mph6.4 kmh 29.83 in1010.2 mb - 0.00 in0.0 mm 0.00 in0.0 mm
12:45 PM 83.3°F28.5°C 72.5°F22.5°C 70% 2.8 mph S4.5 kmh S 8.0 mph12.9 kmh 29.84 in1010.5 mb - 0.00 in0.0 mm 0.00 in0.0 mm
12:30 PM 83.2°F28.4°C 71.5°F21.9°C 68% 1.7 mph SE2.7 kmh SE 4.0 mph6.4 kmh 29.84 in1010.5 mb - 0.00 in0.0 mm 0.00 in0.0 mm
12:15 PM 83.0°F28.3°C 71.8°F22.1°C 69% 3.0 mph SW4.8 kmh SW 5.0 mph8.0 kmh 29.85 in1010.8 mb - 0.00 in0.0 mm 0.00 in0.0 mm
12:00 PM 82.6°F28.1°C 72.2°F22.3°C 71% 1.1 mph SSW1.8 kmh SSW 3.0 mph4.8 kmh 29.86 in1011.2 mb - 0.00 in0.0 mm 0.00 in0.0 mm
11:45 AM 82.0°F27.8°C 72.5°F22.5°C 73% 2.6 mph SSE4.2 kmh SSE 3.0 mph4.8 kmh 29.86 in1011.2 mb - 0.00 in0.0 mm 0.00 in0.0 mm
11:30 AM 81.2°F27.3°C 72.5°F22.5°C 75% 2.3 mph SSE3.7 kmh SSE 4.0 mph6.4 kmh 29.87 in1011.5 mb - 0.00 in0.0 mm 0.00 in0.0 mm
11:15 AM 80.4°F26.9°C 71.0°F21.7°C 73% 1.1 mph SE1.8 kmh SE 2.0 mph3.2 kmh 29.87 in1011.5 mb - 0.00 in0.0 mm 0.00 in0.0 mm
11:00 AM 79.8°F26.6°C 71.6°F22.0°C 76% 2.4 mph SE3.9 kmh SE 4.0 mph6.4 kmh 29.88 in1011.9 mb - 0.00 in0.0 mm 0.00 in0.0 mm
10:45 AM 79.0°F26.1°C 71.5°F21.9°C 78% 1.3 mph ESE2.1 kmh ESE 4.0 mph6.4 kmh 29.88 in1011.9 mb - 0.00 in0.0 mm 0.00 in0.0 mm
10:30 AM 77.8°F25.4°C 71.5°F21.9°C 81% 3.1 mph ESE5.0 kmh ESE 4.0 mph6.4 kmh 29.89 in1012.2 mb - 0.00 in0.0 mm 0.00 in0.0 mm
10:15 AM 76.4°F24.7°C 71.2°F21.8°C 84% 3.7 mph SE6.0 kmh SE 8.0 mph12.9 kmh 29.89 in1012.2 mb - 0.00 in0.0 mm 0.00 in0.0 mm
10:00 AM 74.8°F23.8°C 71.0°F21.7°C 88% 1.7 mph SE2.7 kmh SE 5.0 mph8.0 kmh 29.90 in1012.5 mb - 0.00 in0.0 mm 0.00 in0.0 mm
09:45 AM 73.0°F22.8°C 70.6°F21.4°C 92% 1.3 mph SSE2.1 kmh SSE 5.0 mph8.0 kmh 29.90 in1012.5 mb - 0.00 in0.0 mm 0.00 in0.0 mm
09:30 AM 71.7°F22.1°C 70.5°F21.4°C 96% 0.6 mph SE1.0 kmh SE 4.0 mph6.4 kmh 29.90 in1012.5 mb - 0.00 in0.0 mm 0.00 in0.0 mm
09:15 AM 70.5°F21.4°C 69.6°F20.9°C 97% 0.2 mph WSW0.3 kmh WSW 1.0 mph1.6 kmh 29.91 in1012.9 mb - 0.00 in0.0 mm 0.00 in0.0 mm
09:00 AM 69.7°F20.9°C 69.1°F20.6°C 98% 2.1 mph SE3.4 kmh SE 3.0 mph4.8 kmh 29.91 in1012.9 mb - 0.00 in0.0 mm 0.00 in0.0 mm
08:45 AM 68.2°F20.1°C 67.6°F19.8°C 98% 0.2 mph SE0.3 kmh SE 1.0 mph1.6 kmh 29.91 in1012.9 mb - 0.00 in0.0 mm 0.00 in0.0 mm
08:30 AM 66.7°F19.3°C 66.1°F18.9°C 98% 1.1 mph S1.8 kmh S 2.0 mph3.2 kmh 29.92 in1013.2 mb - 0.00 in0.0 mm 0.00 in0.0 mm
08:15 AM 65.0°F18.3°C 64.1°F17.8°C 97% Calm Calm -- 29.92 in1013.2 mb - 0.00 in0.0 mm 0.00 in0.0 mm
08:00 AM 63.8°F17.7°C 62.9°F17.2°C 97% Calm Calm -- 29.92 in1013.2 mb - 0.00 in0.0 mm 0.00 in0.0 mm
07:45 AM 62.9°F17.2°C 62.0°F16.7°C 97% Calm Calm -- 29.92 in1013.2 mb - 0.00 in0.0 mm 0.00 in0.0 mm
07:30 AM 62.4°F16.9°C 61.2°F16.2°C 96% Calm Calm -- 29.92 in1013.2 mb - 0.00 in0.0 mm 0.00 in0.0 mm
07:15 AM 62.1°F16.7°C 60.9°F16.1°C 96% Calm Calm -- 29.92 in1013.2 mb - 0.00 in0.0 mm 0.00 in0.0 mm
07:00 AM 62.1°F16.7°C 60.9°F16.1°C 96% Calm Calm -- 29.92 in1013.2 mb - 0.00 in0.0 mm 0.00 in0.0 mm
06:45 AM 62.1°F16.7°C 60.9°F16.1°C 96% Calm Calm -- 29.92 in1013.2 mb - 0.00 in0.0 mm 0.00 in0.0 mm
06:30 AM 62.2°F16.8°C 61.0°F16.1°C 96% Calm Calm -- 29.92 in1013.2 mb - 0.00 in0.0 mm 0.00 in0.0 mm
06:15 AM 62.3°F16.8°C 61.1°F16.2°C 96% Calm Calm -- 29.92 in1013.2 mb - 0.00 in0.0 mm 0.00 in0.0 mm
06:00 AM 62.4°F16.9°C 61.3°F16.3°C 96% Calm Calm -- 29.93 in1013.5 mb - 0.00 in0.0 mm 0.00 in0.0 mm
05:45 AM 62.6°F17.0°C 61.4°F16.3°C 96% Calm Calm -- 29.93 in1013.5 mb - 0.00 in0.0 mm 0.00 in0.0 mm
05:30 AM 62.6°F17.0°C 61.4°F16.3°C 96% Calm Calm -- 29.93 in1013.5 mb - 0.00 in0.0 mm 0.00 in0.0 mm
05:15 AM 62.7°F17.1°C 61.5°F16.4°C 96% Calm Calm -- 29.93 in1013.5 mb - 0.00 in0.0 mm 0.00 in0.0 mm
05:00 AM 62.8°F17.1°C 61.3°F16.3°C 95% Calm Calm -- 29.93 in1013.5 mb - 0.00 in0.0 mm 0.00 in0.0 mm
04:45 AM 62.9°F17.2°C 61.4°F16.3°C 95% Calm Calm -- 29.93 in1013.5 mb - 0.00 in0.0 mm 0.00 in0.0 mm
04:30 AM 62.9°F17.2°C 61.7°F16.5°C 96% Calm Calm -- 29.93 in1013.5 mb - 0.00 in0.0 mm 0.00 in0.0 mm
04:15 AM 63.1°F17.3°C 61.6°F16.4°C 95% Calm Calm -- 29.94 in1013.9 mb - 0.00 in0.0 mm 0.00 in0.0 mm
04:00 AM 63.2°F17.3°C 61.7°F16.5°C 95% Calm Calm -- 29.94 in1013.9 mb - 0.00 in0.0 mm 0.00 in0.0 mm
03:45 AM 63.4°F17.4°C 61.9°F16.6°C 95% Calm Calm -- 29.94 in1013.9 mb - 0.00 in0.0 mm 0.00 in0.0 mm
03:30 AM 63.5°F17.5°C 62.0°F16.7°C 95% Calm Calm -- 29.94 in1013.9 mb - 0.00 in0.0 mm 0.00 in0.0 mm
03:15 AM 63.6°F17.6°C 62.2°F16.8°C 95% Calm Calm -- 29.95 in1014.2 mb - 0.00 in0.0 mm 0.00 in0.0 mm
03:00 AM 63.8°F17.7°C 62.3°F16.8°C 95% Calm Calm -- 29.95 in1014.2 mb - 0.00 in0.0 mm 0.00 in0.0 mm
02:45 AM 64.0°F17.8°C 62.5°F16.9°C 95% Calm Calm -- 29.95 in1014.2 mb - 0.00 in0.0 mm 0.00 in0.0 mm
02:30 AM 64.2°F17.9°C 62.7°F17.1°C 95% Calm Calm -- 29.96 in1014.6 mb - 0.00 in0.0 mm 0.00 in0.0 mm
02:15 AM 64.1°F17.8°C 62.6°F17.0°C 95% Calm Calm -- 29.96 in1014.6 mb - 0.00 in0.0 mm 0.00 in0.0 mm
02:00 AM 64.0°F17.8°C 62.5°F16.9°C 95% Calm Calm -- 29.97 in1014.9 mb - 0.00 in0.0 mm 0.00 in0.0 mm
01:45 AM 64.1°F17.8°C 62.6°F17.0°C 95% Calm Calm -- 29.97 in1014.9 mb - 0.00 in0.0 mm 0.00 in0.0 mm
01:30 AM 64.2°F17.9°C 62.7°F17.1°C 95% Calm Calm -- 29.97 in1014.9 mb - 0.00 in0.0 mm 0.00 in0.0 mm
01:15 AM 64.2°F17.9°C 62.7°F17.1°C 95% Calm Calm -- 29.98 in1015.2 mb - 0.00 in0.0 mm 0.00 in0.0 mm
01:00 AM 64.2°F17.9°C 62.4°F16.9°C 94% Calm Calm -- 29.98 in1015.2 mb - 0.00 in0.0 mm 0.00 in0.0 mm
12:45 AM 64.0°F17.8°C 62.2°F16.8°C 94% Calm Calm -- 29.98 in1015.2 mb - 0.00 in0.0 mm 0.00 in0.0 mm
12:30 AM 63.9°F17.7°C 61.8°F16.6°C 93% Calm Calm -- 29.98 in1015.2 mb - 0.00 in0.0 mm 0.00 in0.0 mm
12:15 AM 64.1°F17.8°C 62.0°F16.7°C 93% Calm Calm -- 29.99 in1015.6 mb - 0.00 in0.0 mm 0.00 in0.0 mm
12:00 AM 64.3°F17.9°C 61.9°F16.6°C 92% Calm Calm -- 29.99 in1015.6 mb - 0.00 in0.0 mm 0.00 in0.0 mm